Time;durP1;ratioP1;P1;durP2;ratioP2;P2;SDS_P1;SDS_P2;PMS_P1;PMS_P2;Temp;Humidity;BMP_temperature;BMP_pressure;BME280_temperature;BME280_humidity;BME280_pressure;Samples;Min_cycle;Max_cycle;Signal;HPM_P1;HPM_P2
2022/10/23 00:02:17;;;;;;;;;;;;;;;11.38;83.37;98240.28;5047150;28;19929;-62
2022/10/23 00:05:10;;;;;;;;;;;;;;;11.33;83.29;98226.81;5051006;28;19925;-62
2022/10/23 00:07:38;;;;;;;;;;;;;;;11.32;83.36;98235.28;5052723;28;20016;-62
2022/10/23 00:10:07;;;;;;;;;;;;;;;11.28;83.41;98232.38;5052341;28;20423;-62
2022/10/23 00:12:35;;;;;;;;;;;;;;;11.27;83.60;98238.94;5053631;28;19935;-61
2022/10/23 00:15:06;;;;;;;;;;;;;;;11.20;83.61;98235.84;5051870;28;19925;-58
2022/10/23 00:17:34;;;;;;;;;;;;;;;11.27;83.40;98233.50;5047707;28;19936;-62
2022/10/23 00:20:01;;;;;;;;;;;;;;;11.24;83.85;98236.84;5053217;28;19933;-61
2022/10/23 00:22:29;;;;;;;;;;;;;;;11.26;83.78;98231.88;5052314;28;19932;-61
2022/10/23 00:24:57;;;;;;;;;;;;;;;11.27;83.66;98223.41;5047729;28;20328;-60
2022/10/23 00:27:25;;;;;;;;;;;;;;;11.27;83.91;98223.41;5055322;28;19925;-62
2022/10/23 00:29:53;;;;;;;;;;;;;;;11.28;83.91;98232.38;5039628;28;20435;-62
2022/10/23 00:32:23;;;;;;;;;;;;;;;11.32;83.70;98229.84;5048304;28;19966;-58
2022/10/23 00:34:51;;;;;;;;;;;;;;;11.31;83.77;98223.59;5072294;28;19931;-62
2022/10/23 00:37:19;;;;;;;;;;;;;;;11.28;83.73;98224.22;5052772;28;19925;-61
2022/10/23 00:39:48;;;;;;;;;;;;;;;11.30;83.78;98216.56;5053350;28;20012;-62
2022/10/23 00:42:16;;;;;;;;;;;;;;;11.30;83.89;98211.13;5073412;28;19981;-61
2022/10/23 00:45:05;;;;;;;;;;;;;;;11.29;84.04;98212.22;5036039;28;19925;-62
2022/10/23 00:47:34;;;;;;;;;;;;;;;11.25;84.22;98200.38;5031454;28;19999;-62
2022/10/23 00:50:02;;;;;;;;;;;;;;;11.18;84.54;98203.50;5068961;28;19936;-62
2022/10/23 00:52:30;;;;;;;;;;;;;;;11.24;84.40;98207.72;5050573;28;19964;-62
2022/10/23 00:54:58;;;;;;;;;;;;;;;11.19;84.47;98199.69;5066805;28;19952;-62
2022/10/23 00:57:26;;;;;;;;;;;;;;;11.14;84.98;98207.16;5067402;28;19928;-62
2022/10/23 00:59:55;;;;;;;;;;;;;;;10.99;85.75;98195.50;5031150;28;20015;-61
2022/10/23 01:05:19;;;;;;;;;;;;;;;11.07;85.08;98204.84;5053208;28;20411;-62
2022/10/23 01:07:50;;;;;;;;;;;;;;;11.04;85.00;98199.22;5071313;28;19924;-60
2022/10/23 01:10:21;;;;;;;;;;;;;;;10.90;85.03;98194.63;5052997;28;20028;-61
2022/10/23 01:12:50;;;;;;;;;;;;;;;10.89;85.11;98184.88;5052901;28;19928;-62
2022/10/23 01:15:21;;;;;;;;;;;;;;;10.96;84.43;98185.25;5049283;28;20385;-61
2022/10/23 01:17:51;;;;;;;;;;;;;;;10.97;84.09;98186.88;5066921;28;19925;-62
2022/10/23 01:20:27;;;;;;;;;;;;;;;10.94;84.11;98175.81;5036585;28;19947;-62
2022/10/23 01:23:10;;;;;;;;;;;;;;;10.88;84.11;98177.84;5052430;28;20277;-65
2022/10/23 01:25:51;;;;;;;;;;;;;;;10.84;84.35;98182.25;5037233;28;19933;-61
2022/10/23 01:31:21;;;;;;;;;;;;;;;10.83;84.31;98169.78;5040841;28;19925;-62
2022/10/23 01:33:50;;;;;;;;;;;;;;;10.85;84.36;98166.75;5067531;28;20017;-61
2022/10/23 01:36:25;;;;;;;;;;;;;;;10.78;84.50;98161.75;5066417;28;20744;-61
2022/10/23 01:38:57;;;;;;;;;;;;;;;10.81;84.59;98174.72;5070701;28;19931;-62
2022/10/23 01:41:27;;;;;;;;;;;;;;;10.86;84.00;98166.44;5066810;28;20336;-61
2022/10/23 01:43:57;;;;;;;;;;;;;;;10.79;84.29;98157.91;5053415;28;19929;-61
2022/10/23 01:46:29;;;;;;;;;;;;;;;10.78;84.12;98161.75;5036475;28;20329;-62
2022/10/23 01:48:59;;;;;;;;;;;;;;;10.74;84.24;98158.03;5051142;28;20420;-62
2022/10/23 01:57:13;;;;;;;;;;;;;;;10.71;84.15;98153.22;5055804;28;19929;-62
2022/10/23 01:59:43;;;;;;;;;;;;;;;10.71;83.80;98145.06;5029580;28;19937;-62
2022/10/23 02:02:11;;;;;;;;;;;;;;;10.69;83.91;98145.34;5033408;28;20347;-61
2022/10/23 02:04:46;;;;;;;;;;;;;;;10.61;83.96;98139.88;5029645;28;19978;-62
2022/10/23 02:07:16;;;;;;;;;;;;;;;10.61;83.71;98139.88;5030049;28;19932;-61
2022/10/23 02:09:44;;;;;;;;;;;;;;;10.60;83.80;98147.22;5057563;28;19926;-60
2022/10/23 02:12:13;;;;;;;;;;;;;;;10.49;84.50;98141.19;5029449;28;19925;-60
2022/10/23 02:14:46;;;;;;;;;;;;;;;10.51;84.63;98131.94;5045382;28;19931;-62
2022/10/23 02:17:15;;;;;;;;;;;;;;;10.56;84.45;98126.38;5024334;28;19935;-61
2022/10/23 02:19:45;;;;;;;;;;;;;;;10.54;84.20;98123.97;5031088;28;19929;-62
2022/10/23 02:22:14;;;;;;;;;;;;;;;10.47;84.38;98126.28;5056072;28;20290;-62
2022/10/23 02:24:43;;;;;;;;;;;;;;;10.49;84.31;98134.94;5057133;28;19968;-62
2022/10/23 02:27:12;;;;;;;;;;;;;;;10.51;84.37;98131.94;5023162;28;19929;-62
2022/10/23 02:30:04;;;;;;;;;;;;;;;10.54;84.08;98123.16;5044458;28;19931;-61
2022/10/23 02:32:35;;;;;;;;;;;;;;;10.52;84.18;98125.38;5027951;28;20445;-62
2022/10/23 02:35:03;;;;;;;;;;;;;;;10.48;84.03;98125.19;5029952;28;19948;-62
2022/10/23 02:37:32;;;;;;;;;;;;;;;10.43;84.39;98123.38;5054431;28;19932;-62
2022/10/23 02:40:03;;;;;;;;;;;;;;;10.43;84.33;98122.56;5053124;28;19929;-60
2022/10/23 02:42:42;;;;;;;;;;;;;;;10.42;84.18;98121.78;5062270;28;20346;-61
2022/10/23 02:45:11;;;;;;;;;;;;;;;10.37;84.44;98130.03;5049523;28;19925;-62
2022/10/23 02:47:44;;;;;;;;;;;;;;;10.38;84.64;98126.19;5033251;28;19987;-62
2022/10/23 02:50:15;;;;;;;;;;;;;;;10.40;84.58;98118.56;5026076;28;20039;-62
2022/10/23 02:52:46;;;;;;;;;;;;;;;10.37;84.01;98127.31;5030197;28;19952;-62
2022/10/23 02:55:23;;;;;;;;;;;;;;;10.30;84.38;98132.38;5034849;28;19932;-61
2022/10/23 02:58:17;;;;;;;;;;;;;;;10.32;84.09;98130.13;5045304;28;19928;-62
2022/10/23 03:00:49;;;;;;;;;;;;;;;10.30;84.21;98132.38;5026071;28;19925;-61
2022/10/23 03:03:19;;;;;;;;;;;;;;;10.28;84.52;98131.03;5035662;28;19968;-61
2022/10/23 03:05:50;;;;;;;;;;;;;;;10.24;84.40;98136.31;5050316;28;19925;-61
2022/10/23 03:08:18;;;;;;;;;;;;;;;10.21;84.26;98134.94;5033858;28;19931;-62
2022/10/23 03:10:46;;;;;;;;;;;;;;;10.16;84.81;98129.63;5048935;28;20278;-62
2022/10/23 03:13:16;;;;;;;;;;;;;;;10.16;84.45;98134.25;5050217;28;20011;-61
2022/10/23 03:15:44;;;;;;;;;;;;;;;10.11;84.64;98131.63;5024673;28;19924;-61
2022/10/23 03:18:14;;;;;;;;;;;;;;;10.19;84.56;98128.22;5039810;28;20119;-62
2022/10/23 03:20:48;;;;;;;;;;;;;;;10.16;84.29;98126.91;5062424;28;20377;-62
2022/10/23 03:23:16;;;;;;;;;;;;;;;10.15;84.18;98133.44;5066460;28;19929;-61
2022/10/23 03:25:43;;;;;;;;;;;;;;;10.13;84.15;98130.25;5058440;28;19925;-61
2022/10/23 03:28:52;;;;;;;;;;;;;;;10.07;84.44;98127.94;5030706;28;20023;-61
2022/10/23 03:31:21;;;;;;;;;;;;;;;10.00;84.99;98124.81;5072279;28;19924;-62
2022/10/23 03:33:54;;;;;;;;;;;;;;;10.11;84.50;98120.78;5055023;28;20080;-62
2022/10/23 03:36:24;;;;;;;;;;;;;;;10.07;84.13;98108.94;5074486;28;19928;-62
2022/10/23 03:38:52;;;;;;;;;;;;;;;10.00;84.92;98113.94;5070524;28;19924;-61
2022/10/23 03:41:21;;;;;;;;;;;;;;;9.98;84.66;98123.22;5074543;28;19925;-62
2022/10/23 03:43:51;;;;;;;;;;;;;;;10.00;85.11;98119.38;5056443;28;19931;-62
2022/10/23 03:46:18;;;;;;;;;;;;;;;9.95;84.92;98106.72;5047593;28;19928;-60
2022/10/23 03:48:50;;;;;;;;;;;;;;;9.90;85.10;98094.03;5054501;28;19959;-61
2022/10/23 03:51:19;;;;;;;;;;;;;;;9.94;85.12;98105.91;5035752;28;19931;-62
2022/10/23 03:53:48;;;;;;;;;;;;;;;9.95;85.09;98118.38;5052522;28;20617;-61
2022/10/23 03:56:17;;;;;;;;;;;;;;;9.93;85.16;98115.16;5069203;28;19979;-61
2022/10/23 03:58:45;;;;;;;;;;;;;;;9.94;84.99;98116.75;5052372;28;19925;-61
2022/10/23 04:01:13;;;;;;;;;;;;;;;9.85;85.51;98113.13;5032597;28;19931;-61
2022/10/23 04:03:41;;;;;;;;;;;;;;;9.97;85.23;98121.59;5054523;28;19929;-61
2022/10/23 04:06:09;;;;;;;;;;;;;;;9.92;85.31;98104.63;5039575;28;19925;-61
2022/10/23 04:08:37;;;;;;;;;;;;;;;9.88;85.03;98101.69;5051900;28;19928;-62
2022/10/23 04:11:13;;;;;;;;;;;;;;;9.83;85.37;98114.56;5069402;28;20023;-64
2022/10/23 04:13:52;;;;;;;;;;;;;;;9.81;85.34;98112.16;5040605;28;19925;-61
2022/10/23 04:16:21;;;;;;;;;;;;;;;9.78;85.79;98117.38;5061351;28;19986;-62
2022/10/23 04:18:48;;;;;;;;;;;;;;;9.83;85.25;98115.38;5035701;28;19925;-62
2022/10/23 04:21:16;;;;;;;;;;;;;;;9.87;84.95;98113.66;5036115;28;19935;-61
2022/10/23 04:23:44;;;;;;;;;;;;;;;9.86;85.00;98113.97;5051993;28;19929;-61
2022/10/23 04:26:15;;;;;;;;;;;;;;;9.86;84.68;98114.78;5030172;28;19925;-61
2022/10/23 04:28:43;;;;;;;;;;;;;;;9.83;84.77;98109.13;5058584;28;19924;-61
2022/10/23 04:31:11;;;;;;;;;;;;;;;9.84;84.54;98108.81;5039083;28;19975;-61
2022/10/23 04:34:03;;;;;;;;;;;;;;;9.79;84.72;98105.41;5084038;28;20338;-60
2022/10/23 04:36:32;;;;;;;;;;;;;;;9.81;84.98;98104.03;5055055;28;20366;-61
2022/10/23 04:39:34;;;;;;;;;;;;;;;9.73;85.16;98101.19;5069582;28;19931;-60
2022/10/23 04:42:04;;;;;;;;;;;;;;;9.64;86.16;98110.03;5073864;28;19929;-62
2022/10/23 04:44:32;;;;;;;;;;;;;;;9.73;85.86;98098.47;5085681;28;20455;-61
2022/10/23 04:47:00;;;;;;;;;;;;;;;9.73;85.61;98102.00;5051211;28;19924;-62
2022/10/23 04:49:28;;;;;;;;;;;;;;;9.77;85.56;98103.00;5054140;28;19925;-61
2022/10/23 04:52:20;;;;;;;;;;;;;;;9.68;85.13;98096.66;5053869;28;19931;-62
2022/10/23 04:55:07;;;;;;;;;;;;;;;9.72;85.20;98097.69;5073785;28;20366;-61
2022/10/23 04:57:53;;;;;;;;;;;;;;;9.73;85.19;98101.19;5068112;28;19959;-62
2022/10/23 05:00:24;;;;;;;;;;;;;;;9.62;85.26;98098.66;5043953;28;20449;-61
2022/10/23 05:02:54;;;;;;;;;;;;;;;9.71;84.96;98106.94;5053900;28;19925;-62
2022/10/23 05:05:22;;;;;;;;;;;;;;;9.73;84.75;98103.91;5070017;28;19925;-61
2022/10/23 05:07:59;;;;;;;;;;;;;;;9.67;85.37;98111.34;5073232;28;19968;-60
2022/10/23 05:10:40;;;;;;;;;;;;;;;9.69;85.19;98100.97;5083761;28;19931;-61
2022/10/23 05:13:14;;;;;;;;;;;;;;;9.71;85.22;98098.78;5071948;28;20353;-61
2022/10/23 05:15:42;;;;;;;;;;;;;;;9.71;84.94;98096.88;5045153;28;20328;-60
2022/10/23 05:18:16;;;;;;;;;;;;;;;9.71;84.74;98096.88;5052191;28;20015;-61
2022/10/23 05:20:44;;;;;;;;;;;;;;;9.68;84.70;98108.31;5067428;28;19936;-61
2022/10/23 05:23:12;;;;;;;;;;;;;;;9.52;84.99;98100.75;5034666;28;19954;-60
2022/10/23 05:25:47;;;;;;;;;;;;;;;9.54;85.64;98104.00;5041601;28;20366;-61
2022/10/23 05:28:42;;;;;;;;;;;;;;;9.58;85.11;98103.06;5049537;28;19933;-60
2022/10/23 05:31:15;;;;;;;;;;;;;;;9.57;85.04;98100.66;5060337;28;20609;-61
2022/10/23 05:33:48;;;;;;;;;;;;;;;9.60;85.06;98102.81;5051677;28;20014;-60
2022/10/23 05:36:16;;;;;;;;;;;;;;;9.53;85.04;98105.09;5070212;28;20428;-60
2022/10/23 05:38:45;;;;;;;;;;;;;;;9.42;85.53;98099.84;5050964;28;20452;-61
2022/10/23 05:41:16;;;;;;;;;;;;;;;9.51;84.95;98110.00;5087034;28;19962;-60
2022/10/23 05:43:45;;;;;;;;;;;;;;;9.44;85.60;98113.13;5086485;28;20023;-59
2022/10/23 05:46:41;;;;;;;;;;;;;;;9.53;85.25;98105.09;5052710;28;20401;-60
2022/10/23 05:49:28;;;;;;;;;;;;;;;9.56;85.00;98096.34;5040045;28;19964;-61
2022/10/23 05:52:14;;;;;;;;;;;;;;;9.48;85.03;98088.91;5067380;28;20246;-60
2022/10/23 05:54:52;;;;;;;;;;;;;;;9.42;85.70;98086.28;5070410;28;20005;-61
2022/10/23 05:57:40;;;;;;;;;;;;;;;9.48;85.18;98084.31;5030244;28;19929;-58
2022/10/23 06:00:11;;;;;;;;;;;;;;;9.50;84.95;98090.22;5021857;28;20015;-61
2022/10/23 06:05:41;;;;;;;;;;;;;;;9.42;85.25;98088.19;5029670;28;19929;-60
2022/10/23 06:08:23;;;;;;;;;;;;;;;9.28;85.91;98081.97;5046206;28;20378;-58
2022/10/23 06:10:51;;;;;;;;;;;;;;;9.44;85.94;98089.50;5027728;28;20465;-60
2022/10/23 06:13:20;;;;;;;;;;;;;;;9.52;85.51;98100.75;5029350;28;19929;-60
2022/10/23 06:15:48;;;;;;;;;;;;;;;9.50;85.91;98101.06;5025151;28;20205;-59
2022/10/23 06:21:15;;;;;;;;;;;;;;;9.64;85.31;98098.34;5027296;28;19956;-57
2022/10/23 06:23:47;;;;;;;;;;;;;;;9.61;85.53;98091.63;5056347;28;20361;-60
2022/10/23 06:26:36;;;;;;;;;;;;;;;9.68;85.42;98097.47;5029151;28;19975;-60
2022/10/23 06:29:09;;;;;;;;;;;;;;;9.71;84.98;98096.88;5030341;28;19925;-59
2022/10/23 06:31:40;;;;;;;;;;;;;;;9.72;84.88;98100.38;5051787;28;20450;-59
2022/10/23 06:34:09;;;;;;;;;;;;;;;9.80;84.85;98093.44;5029514;28;19933;-59
2022/10/23 06:36:38;;;;;;;;;;;;;;;9.85;84.66;98091.44;5029356;28;19940;-60
2022/10/23 06:39:55;;;;;;;;;;;;;;;9.90;84.47;98096.75;5029440;28;19925;-61
2022/10/23 06:42:36;;;;;;;;;;;;;;;9.87;84.63;98097.38;5022546;28;19926;-60
2022/10/23 06:45:42;;;;;;;;;;;;;;;10.03;84.04;98110.66;5017448;28;19995;-60
2022/10/23 06:48:35;;;;;;;;;;;;;;;10.10;83.97;98108.31;5029711;28;19960;-60
2022/10/23 06:51:34;;;;;;;;;;;;;;;10.08;84.55;98102.41;5044641;28;20027;-60
2022/10/23 06:54:05;;;;;;;;;;;;;;;10.15;84.61;98103.59;5061452;28;19932;-61
2022/10/23 06:57:05;;;;;;;;;;;;;;;10.19;84.35;98107.31;5063184;28;19959;-60
2022/10/23 06:59:42;;;;;;;;;;;;;;;10.27;84.06;98107.72;5049504;28;19928;-60
2022/10/23 07:02:12;;;;;;;;;;;;;;;10.34;83.66;98102.69;5041759;28;19924;-61
2022/10/23 07:04:40;;;;;;;;;;;;;;;10.23;84.84;98097.50;5081294;28;20538;-61
2022/10/23 07:07:13;;;;;;;;;;;;;;;10.33;84.49;98095.63;5050053;28;19924;-61
2022/10/23 07:09:51;;;;;;;;;;;;;;;10.33;84.37;98093.72;5066278;28;20037;-60
2022/10/23 07:12:46;;;;;;;;;;;;;;;10.47;83.95;98088.28;5064898;28;20346;-60
2022/10/23 07:15:37;;;;;;;;;;;;;;;10.54;83.69;98090.56;5043069;28;19925;-60
2022/10/23 07:18:13;;;;;;;;;;;;;;;10.43;83.91;98084.56;5049958;28;20348;-65
2022/10/23 07:20:59;;;;;;;;;;;;;;;10.45;84.25;98099.44;5048427;28;19949;-60
2022/10/23 07:23:29;;;;;;;;;;;;;;;10.46;84.65;98092.91;5032735;28;19928;-60
2022/10/23 07:26:03;;;;;;;;;;;;;;;10.53;84.35;98094.38;5065657;28;19924;-61
2022/10/23 07:28:31;;;;;;;;;;;;;;;10.67;84.08;98089.72;5052598;28;19928;-59
2022/10/23 07:30:59;;;;;;;;;;;;;;;10.57;84.21;98090.75;5060380;28;19936;-60
2022/10/23 07:33:47;;;;;;;;;;;;;;;10.75;84.09;98097.13;5052008;28;19928;-60
2022/10/23 07:36:18;;;;;;;;;;;;;;;10.83;83.77;98087.47;5033494;28;19929;-59
2022/10/23 07:38:47;;;;;;;;;;;;;;;10.87;83.69;98078.38;5065009;28;20653;-60
2022/10/23 07:41:16;;;;;;;;;;;;;;;10.93;83.64;98088.00;5064320;28;19931;-61
2022/10/23 07:43:44;;;;;;;;;;;;;;;11.02;83.50;98083.44;5032210;28;19932;-59
2022/10/23 07:46:12;;;;;;;;;;;;;;;11.09;83.39;98084.94;5059749;28;19929;-60
2022/10/23 07:48:41;;;;;;;;;;;;;;;11.14;83.31;98082.88;5063120;28;19928;-59
2022/10/23 07:51:16;;;;;;;;;;;;;;;11.20;82.99;98081.63;5046033;28;20372;-61
2022/10/23 07:53:49;;;;;;;;;;;;;;;11.28;83.01;98082.78;5029804;28;20305;-61
2022/10/23 07:56:36;;;;;;;;;;;;;;;11.34;82.85;98086.97;5040040;28;19925;-60
2022/10/23 07:59:20;;;;;;;;;;;;;;;11.33;83.01;98079.94;5062521;28;19944;-60
2022/10/23 08:01:57;;;;;;;;;;;;;;;11.46;82.74;98078.25;5025602;28;20321;-60
2022/10/23 08:04:31;;;;;;;;;;;;;;;11.52;82.62;98071.56;5063003;28;19928;-58
2022/10/23 08:07:10;;;;;;;;;;;;;;;11.60;82.25;98067.25;5060414;28;19931;-60
2022/10/23 08:09:42;;;;;;;;;;;;;;;11.64;82.76;98068.25;5030164;28;20445;-59
2022/10/23 08:12:12;;;;;;;;;;;;;;;11.70;82.78;98062.34;5043870;28;19929;-60
2022/10/23 08:14:40;;;;;;;;;;;;;;;11.78;82.23;98058.84;5033888;28;20012;-59
2022/10/23 08:17:08;;;;;;;;;;;;;;;11.92;81.71;98066.13;5054634;28;20051;-60
2022/10/23 08:19:54;;;;;;;;;;;;;;;11.95;81.90;98063.56;5046112;28;20007;-59
2022/10/23 08:22:25;;;;;;;;;;;;;;;12.03;81.92;98054.59;5032387;28;19929;-59
2022/10/23 08:24:55;;;;;;;;;;;;;;;12.05;82.04;98062.47;5045874;28;19960;-59
2022/10/23 08:27:26;;;;;;;;;;;;;;;12.05;82.11;98060.56;5041397;28;20325;-59
2022/10/23 08:29:54;;;;;;;;;;;;;;;12.16;81.95;98041.19;5047973;28;21282;-59
2022/10/23 08:32:22;;;;;;;;;;;;;;;12.21;81.90;98050.03;5037493;28;19929;-59
2022/10/23 08:34:59;;;;;;;;;;;;;;;12.23;82.38;98046.97;5035649;28;19968;-60
2022/10/23 08:37:30;;;;;;;;;;;;;;;12.30;82.22;98041.84;5067017;28;20380;-60
2022/10/23 08:39:58;;;;;;;;;;;;;;;12.41;81.76;98042.31;5033294;28;19925;-59
2022/10/23 08:42:48;;;;;;;;;;;;;;;12.47;81.93;98038.34;5040925;28;19925;-60
2022/10/23 08:45:21;;;;;;;;;;;;;;;12.57;81.68;98047.00;5055036;28;19937;-60
2022/10/23 08:47:54;;;;;;;;;;;;;;;12.68;81.61;98042.03;5048383;28;19924;-59
2022/10/23 08:50:42;;;;;;;;;;;;;;;12.75;81.70;98036.09;5068659;28;19935;-60
2022/10/23 08:53:12;;;;;;;;;;;;;;;12.83;81.30;98044.25;5068655;28;20019;-60
2022/10/23 08:55:41;;;;;;;;;;;;;;;12.94;81.15;98039.25;5061777;28;19924;-60
2022/10/23 08:58:14;;;;;;;;;;;;;;;13.04;81.00;98027.22;5068363;28;19950;-60
2022/10/23 09:00:43;;;;;;;;;;;;;;;13.14;81.16;98028.78;5045548;28;20220;-59
2022/10/23 09:03:11;;;;;;;;;;;;;;;13.22;80.79;98023.34;5071206;28;19932;-60
2022/10/23 09:05:49;;;;;;;;;;;;;;;13.32;80.60;98023.00;5072102;28;19955;-60
2022/10/23 09:08:21;;;;;;;;;;;;;;;13.43;80.31;98015.25;5068871;28;20296;-60
2022/10/23 09:10:59;;;;;;;;;;;;;;;13.55;80.25;98014.56;5085346;28;19934;-60
2022/10/23 09:13:45;;;;;;;;;;;;;;;13.70;79.41;98015.94;5067484;28;19964;-60
2022/10/23 09:16:15;;;;;;;;;;;;;;;13.86;78.68;98015.03;5064132;28;20316;-58
2022/10/23 09:18:46;;;;;;;;;;;;;;;13.96;78.22;98029.47;5070455;28;20030;-60
2022/10/23 09:21:13;;;;;;;;;;;;;;;14.05;77.08;98031.00;5072707;28;20407;-60
2022/10/23 09:23:41;;;;;;;;;;;;;;;14.12;76.95;98034.00;5069175;28;19933;-60
2022/10/23 09:26:11;;;;;;;;;;;;;;;14.23;75.78;98036.38;5068146;28;19925;-60
2022/10/23 09:28:42;;;;;;;;;;;;;;;14.29;75.03;98033.09;5070323;28;19924;-59
2022/10/23 09:31:35;;;;;;;;;;;;;;;14.32;74.32;98026.16;5063707;28;19924;-60
2022/10/23 09:34:03;;;;;;;;;;;;;;;14.35;73.64;98028.22;5054050;28;19929;-61
2022/10/23 09:36:33;;;;;;;;;;;;;;;14.41;73.01;98018.69;5090624;28;19966;-60
2022/10/23 09:39:01;;;;;;;;;;;;;;;14.46;71.44;98025.91;5068790;28;19925;-61
2022/10/23 09:41:30;;;;;;;;;;;;;;;14.52;71.23;98014.44;5072003;28;20012;-60
2022/10/23 09:44:02;;;;;;;;;;;;;;;14.54;70.76;98012.19;5069543;28;19968;-58
2022/10/23 09:46:39;;;;;;;;;;;;;;;14.59;71.04;98008.44;5076798;28;19924;-60
2022/10/23 09:49:33;;;;;;;;;;;;;;;14.64;69.55;98006.28;5069811;28;19963;-60
2022/10/23 09:52:03;;;;;;;;;;;;;;;14.74;69.28;98016.03;5066842;28;20173;-59
2022/10/23 09:54:32;;;;;;;;;;;;;;;14.80;69.30;98008.41;5073371;28;19959;-59
2022/10/23 09:57:06;;;;;;;;;;;;;;;14.86;68.87;98009.78;5054707;28;19932;-60
2022/10/23 09:59:34;;;;;;;;;;;;;;;14.99;68.48;98014.19;5066908;28;20015;-61
2022/10/23 10:02:03;;;;;;;;;;;;;;;15.19;67.37;98005.13;5058644;28;19942;-57
2022/10/23 10:04:54;;;;;;;;;;;;;;;15.27;67.36;98006.16;5083142;28;19959;-60
2022/10/23 10:07:23;;;;;;;;;;;;;;;15.41;66.17;98011.31;5068957;28;19963;-59
2022/10/23 10:09:52;;;;;;;;;;;;;;;15.53;64.77;98003.09;5068717;28;20297;-60
2022/10/23 10:12:24;;;;;;;;;;;;;;;15.62;64.60;98005.75;5066161;28;19964;-61
2022/10/23 10:14:53;;;;;;;;;;;;;;;15.64;64.53;98008.97;5065949;28;19928;-63
2022/10/23 10:17:26;;;;;;;;;;;;;;;15.67;64.89;98000.06;5059975;28;20261;-58
2022/10/23 10:22:53;;;;;;;;;;;;;;;15.65;64.50;97985.91;5068772;28;19928;-60
2022/10/23 10:25:22;;;;;;;;;;;;;;;15.65;64.59;97991.38;5069942;28;19925;-59
2022/10/23 10:28:14;;;;;;;;;;;;;;;15.66;64.60;97977.38;5069515;28;19924;-60
2022/10/23 10:31:09;;;;;;;;;;;;;;;15.71;63.84;97971.66;5064072;28;19939;-59
2022/10/23 10:33:41;;;;;;;;;;;;;;;15.74;64.05;97970.16;5069964;28;20019;-60
2022/10/23 10:36:12;;;;;;;;;;;;;;;15.77;64.03;97968.69;5069718;28;19970;-60
2022/10/23 10:42:09;;;;;;;;;;;;;;;15.84;63.49;97952.47;5065750;28;20293;-60
2022/10/23 10:44:56;;;;;;;;;;;;;;;15.81;64.10;97953.13;5076854;28;19933;-61
2022/10/23 10:47:26;;;;;;;;;;;;;;;15.85;63.08;97962.28;5064374;28;19947;-60
2022/10/23 10:49:58;;;;;;;;;;;;;;;15.88;62.76;97950.63;5052482;28;19931;-61
2022/10/23 10:52:39;;;;;;;;;;;;;;;16.01;62.30;97941.25;5065581;28;19931;-60
2022/10/23 10:55:13;;;;;;;;;;;;;;;16.10;62.82;97932.88;5045158;28;20027;-59
2022/10/23 10:57:42;;;;;;;;;;;;;;;16.30;61.67;97931.09;5069567;28;20405;-60
2022/10/23 11:00:13;;;;;;;;;;;;;;;16.38;60.12;97922.72;5065069;28;19924;-60
2022/10/23 11:03:06;;;;;;;;;;;;;;;16.42;61.22;97922.84;5067916;28;19928;-60
2022/10/23 11:05:37;;;;;;;;;;;;;;;16.48;61.00;97911.25;5067597;28;19994;-61
2022/10/23 11:08:06;;;;;;;;;;;;;;;16.62;60.43;97913.63;5070165;28;19932;-60
2022/10/23 11:10:35;;;;;;;;;;;;;;;16.62;60.52;97916.34;5069753;28;19925;-61
2022/10/23 11:13:03;;;;;;;;;;;;;;;16.74;60.72;97908.09;5069440;28;19932;-60
2022/10/23 11:15:38;;;;;;;;;;;;;;;16.75;59.87;97895.94;5047345;28;20010;-59
2022/10/23 11:18:07;;;;;;;;;;;;;;;16.79;59.67;97882.34;5069444;28;19931;-61
2022/10/23 11:20:40;;;;;;;;;;;;;;;16.81;59.88;97881.97;5050257;28;20090;-61
2022/10/23 11:23:16;;;;;;;;;;;;;;;16.88;59.63;97884.91;5067731;28;19947;-60
2022/10/23 11:25:59;;;;;;;;;;;;;;;16.96;59.51;97901.19;5066734;28;19925;-60
2022/10/23 11:28:30;;;;;;;;;;;;;;;16.94;59.61;97899.97;5069806;28;19964;-60
2022/10/23 11:31:05;;;;;;;;;;;;;;;17.09;58.76;97895.63;5080358;28;20024;-60
2022/10/23 11:33:50;;;;;;;;;;;;;;;17.08;59.33;97894.81;5067443;28;19935;-60
2022/10/23 11:36:39;;;;;;;;;;;;;;;17.14;58.76;97898.88;5068844;28;19932;-61
2022/10/23 11:39:13;;;;;;;;;;;;;;;17.15;59.18;97911.50;5069510;28;19925;-60
2022/10/23 11:41:48;;;;;;;;;;;;;;;17.15;59.18;97900.50;5069540;28;19925;-60
2022/10/23 11:44:37;;;;;;;;;;;;;;;17.17;59.31;97906.44;5072016;28;20289;-58
2022/10/23 11:47:06;;;;;;;;;;;;;;;17.14;59.54;97898.88;5058559;28;19931;-60
2022/10/23 11:49:34;;;;;;;;;;;;;;;17.09;58.73;97899.16;5069667;28;19974;-60
2022/10/23 11:52:04;;;;;;;;;;;;;;;17.12;59.57;97894.91;5067848;28;20389;-61
2022/10/23 11:54:32;;;;;;;;;;;;;;;17.16;59.25;97880.13;5069113;28;19924;-60
2022/10/23 11:57:08;;;;;;;;;;;;;;;17.14;59.64;97865.16;5072985;28;19928;-60
2022/10/23 11:59:40;;;;;;;;;;;;;;;17.17;59.42;97859.75;5071989;28;20019;-61
2022/10/23 12:02:19;;;;;;;;;;;;;;;17.19;59.96;97860.19;5066164;28;19931;-61
2022/10/23 12:04:47;;;;;;;;;;;;;;;17.24;59.11;97848.16;5071524;28;20428;-61
2022/10/23 12:07:17;;;;;;;;;;;;;;;17.26;58.25;97840.38;5072306;28;19925;-60
2022/10/23 12:09:46;;;;;;;;;;;;;;;17.23;58.58;97836.38;5072200;28;19933;-58
2022/10/23 12:12:15;;;;;;;;;;;;;;;17.20;59.12;97842.56;5070476;28;20003;-60
2022/10/23 12:14:44;;;;;;;;;;;;;;;17.23;58.97;97852.03;5070085;28;19963;-61
2022/10/23 12:17:39;;;;;;;;;;;;;;;17.28;58.53;97852.56;5081731;28;19935;-59
2022/10/23 12:20:28;;;;;;;;;;;;;;;17.35;58.55;97842.91;5048931;28;20028;-60
2022/10/23 12:23:05;;;;;;;;;;;;;;;17.39;58.27;97827.31;5067271;28;19959;-60
2022/10/23 12:25:35;;;;;;;;;;;;;;;17.43;58.54;97822.69;5070828;28;20006;-60
2022/10/23 12:28:28;;;;;;;;;;;;;;;17.59;58.70;97822.66;5072145;28;19958;-60
2022/10/23 12:30:59;;;;;;;;;;;;;;;17.58;58.34;97841.09;5048224;28;20005;-60
2022/10/23 12:33:27;;;;;;;;;;;;;;;17.60;58.95;97843.47;5070617;28;19943;-59
2022/10/23 12:36:03;;;;;;;;;;;;;;;17.66;58.09;97837.31;5053282;28;20365;-60
2022/10/23 12:41:25;;;;;;;;;;;;;;;17.59;59.44;97841.88;5073955;28;20391;-60
2022/10/23 12:43:54;;;;;;;;;;;;;;;17.59;59.73;97823.44;5068733;28;20027;-59
2022/10/23 12:46:32;;;;;;;;;;;;;;;17.59;59.61;97809.72;5066222;28;20016;-60
2022/10/23 12:49:01;;;;;;;;;;;;;;;17.56;58.67;97810.41;5070053;28;19932;-61
2022/10/23 12:51:30;;;;;;;;;;;;;;;17.55;58.81;97808.84;5070356;28;19947;-60
2022/10/23 12:54:00;;;;;;;;;;;;;;;17.59;58.80;97803.44;5070933;28;19963;-59
2022/10/23 12:56:33;;;;;;;;;;;;;;;17.61;58.59;97796.41;5070003;28;19932;-58
2022/10/23 12:59:02;;;;;;;;;;;;;;;17.62;59.14;97794.44;5068728;28;19924;-59
2022/10/23 13:01:31;;;;;;;;;;;;;;;17.68;58.30;97796.53;5063560;28;19971;-57
2022/10/23 13:04:01;;;;;;;;;;;;;;;17.66;58.30;97796.13;5053401;28;19931;-60
2022/10/23 13:06:29;;;;;;;;;;;;;;;17.60;58.35;97789.31;5069740;28;20316;-58
2022/10/23 13:08:57;;;;;;;;;;;;;;;17.61;58.34;97785.41;5071115;28;19930;-60
2022/10/23 13:11:49;;;;;;;;;;;;;;;17.57;59.16;97795.53;5062666;28;19924;-60
2022/10/23 13:14:25;;;;;;;;;;;;;;;17.56;58.51;97799.44;5068328;28;20023;-59
2022/10/23 13:16:58;;;;;;;;;;;;;;;17.49;59.38;97793.78;5065715;28;19970;-59
2022/10/23 13:19:26;;;;;;;;;;;;;;;17.48;60.07;97781.22;5071430;28;19932;-61
2022/10/23 13:21:54;;;;;;;;;;;;;;;17.46;59.71;97773.31;5070745;28;19970;-61
2022/10/23 13:24:22;;;;;;;;;;;;;;;17.41;59.86;97776.34;5069455;28;19932;-59
2022/10/23 13:26:51;;;;;;;;;;;;;;;17.36;59.86;97778.59;5071735;28;20371;-59
2022/10/23 13:29:19;;;;;;;;;;;;;;;17.33;60.53;97777.38;5048639;28;19932;-60
2022/10/23 13:31:48;;;;;;;;;;;;;;;17.31;61.06;97770.63;5067186;28;19962;-60
2022/10/23 13:37:27;;;;;;;;;;;;;;;17.31;60.46;97773.38;5053193;28;19924;-60
2022/10/23 13:39:59;;;;;;;;;;;;;;;17.27;61.03;97771.34;5069686;28;20631;-60
2022/10/23 13:45:22;;;;;;;;;;;;;;;17.20;60.93;97776.66;5062661;28;19956;-60
2022/10/23 13:47:51;;;;;;;;;;;;;;;17.18;61.17;97775.44;5050255;28;20602;-58
2022/10/23 13:50:19;;;;;;;;;;;;;;;17.19;61.04;97775.09;5050062;28;19968;-59
2022/10/23 13:52:48;;;;;;;;;;;;;;;17.20;60.82;97771.19;5048879;28;20330;-59
2022/10/23 13:55:19;;;;;;;;;;;;;;;17.20;61.03;97773.13;5049873;28;19925;-60